Time;durP1;ratioP1;P1;durP2;ratioP2;P2;SDS_P1;SDS_P2;PMS_P1;PMS_P2;Temp;Humidity;BMP_temperature;BMP_pressure;BME280_temperature;BME280_humidity;BME280_pressure;Samples;Min_cycle;Max_cycle;Signal;HPM_P1;HPM_P2
2022/10/06 00:00:39;;;;;;;5.70;4.10;;;14.50;99.90;;;;;;5113466;28;20480;-56
2022/10/06 00:03:07;;;;;;;3.93;3.37;;;14.50;99.90;;;;;;5112435;28;20478;-56
2022/10/06 00:05:34;;;;;;;3.83;3.37;;;14.50;99.90;;;;;;5114238;28;20959;-56
2022/10/06 00:08:02;;;;;;;5.20;3.90;;;14.30;99.90;;;;;;5114107;28;20499;-56
2022/10/06 00:10:31;;;;;;;4.93;3.73;;;14.40;99.90;;;;;;5112403;28;20898;-56
2022/10/06 00:12:59;;;;;;;4.70;4.30;;;14.30;99.90;;;;;;5114046;28;20451;-56
2022/10/06 00:15:28;;;;;;;6.63;3.90;;;14.30;99.90;;;;;;5113819;28;20442;-56
2022/10/06 00:17:56;;;;;;;6.60;4.90;;;14.30;99.90;;;;;;5112276;28;20800;-56
2022/10/06 00:20:24;;;;;;;3.70;3.30;;;14.30;99.90;;;;;;5113949;28;20547;-56
2022/10/06 00:22:51;;;;;;;4.97;4.37;;;14.30;99.90;;;;;;5114043;28;20474;-56
2022/10/06 00:25:20;;;;;;;5.83;3.77;;;14.30;99.90;;;;;;5112340;28;20929;-56
2022/10/06 00:27:51;;;;;;;4.30;3.87;;;14.30;99.90;;;;;;5114020;28;20457;-56
2022/10/06 00:30:21;;;;;;;4.03;3.63;;;14.30;99.90;;;;;;5113891;28;20504;-56
2022/10/06 00:32:52;;;;;;;4.57;3.50;;;14.30;99.90;;;;;;5112075;28;20470;-56
2022/10/06 00:35:24;;;;;;;3.93;3.57;;;14.20;99.90;;;;;;5113697;28;20431;-56
2022/10/06 00:37:51;;;;;;;5.77;3.93;;;14.30;99.90;;;;;;5113491;28;20447;-56
2022/10/06 00:40:20;;;;;;;4.03;3.63;;;14.20;99.90;;;;;;5111583;28;20445;-56
2022/10/06 00:42:54;;;;;;;3.83;3.53;;;14.20;99.90;;;;;;5113437;28;20472;-56
2022/10/06 00:45:27;;;;;;;3.80;3.40;;;14.30;99.90;;;;;;5113186;28;20896;-56
2022/10/06 00:47:55;;;;;;;4.37;3.63;;;14.30;99.90;;;;;;5111531;28;20533;-56
2022/10/06 00:50:22;;;;;;;4.50;3.70;;;14.30;99.90;;;;;;5113065;28;20489;-56
2022/10/06 00:52:50;;;;;;;5.83;3.73;;;14.20;99.90;;;;;;5113819;28;20480;-55
2022/10/06 00:55:19;;;;;;;4.63;4.10;;;14.10;99.90;;;;;;5111021;28;21058;-56
2022/10/06 00:57:47;;;;;;;7.63;4.10;;;14.20;99.90;;;;;;5113338;28;20496;-56
2022/10/06 01:00:16;;;;;;;4.37;3.93;;;14.10;99.90;;;;;;5113527;28;20945;-57
2022/10/06 01:02:48;;;;;;;4.60;3.53;;;14.10;99.90;;;;;;5111423;28;20545;-56
2022/10/06 01:05:20;;;;;;;5.70;4.10;;;14.10;99.90;;;;;;5113313;28;20838;-56
2022/10/06 01:07:47;;;;;;;4.53;4.10;;;14.00;99.90;;;;;;5113654;28;20796;-56
2022/10/06 01:10:15;;;;;;;4.13;3.73;;;14.10;99.90;;;;;;5111458;28;20810;-56
2022/10/06 01:12:42;;;;;;;5.23;3.70;;;14.10;99.90;;;;;;5112989;28;20463;-56
2022/10/06 01:15:10;;;;;;;6.50;3.50;;;14.10;99.90;;;;;;5112736;28;20945;-56
2022/10/06 01:17:43;;;;;;;5.97;4.00;;;14.10;99.90;;;;;;5111137;28;20520;-57
2022/10/06 01:20:13;;;;;;;4.00;3.50;;;14.20;99.90;;;;;;5112884;28;20437;-56
2022/10/06 01:22:44;;;;;;;4.67;3.93;;;14.20;99.90;;;;;;5112931;28;21049;-56
2022/10/06 01:25:14;;;;;;;4.23;3.17;;;14.20;99.90;;;;;;5111170;28;20849;-56
2022/10/06 01:27:44;;;;;;;4.23;3.37;;;14.20;99.90;;;;;;5113185;28;20446;-56
2022/10/06 01:30:15;;;;;;;10.07;3.83;;;14.20;99.90;;;;;;5112887;28;20482;-56
2022/10/06 01:32:43;;;;;;;4.83;3.63;;;14.30;99.90;;;;;;5110792;28;20466;-56
2022/10/06 01:35:11;;;;;;;10.70;4.83;;;14.30;99.90;;;;;;5112856;28;20446;-56
2022/10/06 01:37:38;;;;;;;4.03;3.50;;;14.30;99.90;;;;;;5112914;28;20801;-56
2022/10/06 01:40:08;;;;;;;5.83;3.70;;;14.40;99.90;;;;;;5110793;28;20449;-56
2022/10/06 01:42:36;;;;;;;4.00;3.40;;;14.40;99.90;;;;;;5112822;28;20462;-56
2022/10/06 01:45:05;;;;;;;4.50;3.67;;;14.40;99.90;;;;;;5112838;28;20449;-56
2022/10/06 01:47:33;;;;;;;5.03;3.70;;;14.50;99.90;;;;;;5110674;28;20451;-56
2022/10/06 01:50:00;;;;;;;4.30;3.50;;;14.50;99.90;;;;;;5112616;28;20485;-56
2022/10/06 01:52:27;;;;;;;5.20;3.30;;;14.60;99.90;;;;;;5112763;28;20463;-56
2022/10/06 01:54:54;;;;;;;6.40;3.77;;;14.60;99.90;;;;;;5110058;28;20968;-56
2022/10/06 01:57:23;;;;;;;4.87;4.27;;;14.60;99.90;;;;;;5112570;28;20449;-56
2022/10/06 01:59:53;;;;;;;3.67;3.37;;;14.60;99.90;;;;;;5112721;28;20457;-56
2022/10/06 02:02:20;;;;;;;3.60;3.37;;;14.60;99.90;;;;;;5110793;28;20463;-56
2022/10/06 02:04:47;;;;;;;15.27;4.87;;;14.60;99.90;;;;;;5112865;28;20447;-56
2022/10/06 02:07:14;;;;;;;4.27;3.87;;;14.60;99.90;;;;;;5112821;28;20453;-56
2022/10/06 02:09:41;;;;;;;5.13;3.90;;;14.60;99.90;;;;;;5110632;28;20446;-56
2022/10/06 02:12:08;;;;;;;5.30;3.70;;;14.60;99.90;;;;;;5112476;28;20470;-57
2022/10/06 02:14:36;;;;;;;4.80;4.00;;;14.60;99.90;;;;;;5112778;28;20446;-56
2022/10/06 02:17:03;;;;;;;4.60;3.67;;;14.50;99.90;;;;;;5110151;28;20450;-56
2022/10/06 02:19:30;;;;;;;6.63;3.93;;;14.40;99.90;;;;;;5112463;28;21001;-56
2022/10/06 02:21:58;;;;;;;4.57;4.17;;;14.40;99.90;;;;;;5111243;28;20979;-55
2022/10/06 02:24:25;;;;;;;3.70;3.40;;;14.40;99.90;;;;;;5112113;28;20533;-56
2022/10/06 02:26:53;;;;;;;3.70;3.40;;;14.40;99.90;;;;;;5116559;28;20451;-56
2022/10/06 02:29:20;;;;;;;7.87;3.63;;;14.40;99.90;;;;;;5116330;28;20449;-56
2022/10/06 02:31:49;;;;;;;4.40;3.50;;;14.30;99.90;;;;;;5113909;28;20518;-57
2022/10/06 02:34:16;;;;;;;3.93;3.37;;;14.30;99.90;;;;;;5116113;28;20453;-57
2022/10/06 02:36:43;;;;;;;4.67;4.23;;;14.30;99.90;;;;;;5115939;28;20446;-57
2022/10/06 02:39:10;;;;;;;7.87;3.20;;;14.20;99.90;;;;;;5114143;28;20941;-57
2022/10/06 02:41:37;;;;;;;5.60;3.40;;;14.20;99.90;;;;;;5115966;28;20992;-57
2022/10/06 02:44:05;;;;;;;5.50;3.43;;;14.20;99.90;;;;;;5115546;28;20450;-57
2022/10/06 02:46:32;;;;;;;6.27;3.73;;;14.20;99.90;;;;;;5113823;28;20533;-57
2022/10/06 02:49:00;;;;;;;4.27;3.87;;;14.20;99.90;;;;;;5115881;28;20446;-57
2022/10/06 02:51:28;;;;;;;4.13;3.83;;;14.10;99.90;;;;;;5115610;28;20566;-57
2022/10/06 02:53:55;;;;;;;6.00;4.37;;;14.10;99.90;;;;;;5112644;28;20984;-57
2022/10/06 02:56:24;;;;;;;7.07;4.17;;;14.00;99.90;;;;;;5115871;28;20529;-57
2022/10/06 02:58:52;;;;;;;7.93;4.30;;;14.00;99.90;;;;;;5115216;28;20453;-57
2022/10/06 03:01:22;;;;;;;6.13;3.90;;;14.00;99.90;;;;;;5114065;28;20507;-55
2022/10/06 03:03:50;;;;;;;5.53;4.20;;;14.00;99.90;;;;;;5115511;28;20450;-57
2022/10/06 03:06:24;;;;;;;4.30;4.00;;;14.00;99.90;;;;;;5115461;28;20442;-57
2022/10/06 03:08:51;;;;;;;6.07;4.20;;;13.90;99.90;;;;;;5113759;28;20454;-57
2022/10/06 03:11:19;;;;;;;5.00;4.50;;;13.90;99.90;;;;;;5115712;28;20482;-56
2022/10/06 03:13:46;;;;;;;9.57;4.90;;;13.90;99.90;;;;;;5115224;28;20450;-56
2022/10/06 03:16:15;;;;;;;8.33;3.97;;;13.80;99.90;;;;;;5113173;28;20533;-56
2022/10/06 03:18:45;;;;;;;4.50;4.10;;;13.90;99.90;;;;;;5115477;28;20457;-57
2022/10/06 03:21:13;;;;;;;4.57;4.00;;;13.90;99.90;;;;;;5114887;28;20446;-57
2022/10/06 03:23:42;;;;;;;8.57;4.97;;;13.90;99.90;;;;;;5113154;28;20972;-56
2022/10/06 03:26:10;;;;;;;4.20;3.80;;;13.80;99.90;;;;;;5114937;28;20453;-56
2022/10/06 03:28:38;;;;;;;5.07;4.40;;;13.90;99.90;;;;;;5115234;28;20447;-57
2022/10/06 03:31:06;;;;;;;8.33;3.80;;;13.80;99.90;;;;;;5113364;28;20908;-56
2022/10/06 03:33:33;;;;;;;5.20;4.60;;;13.80;99.90;;;;;;5114697;28;20504;-56
2022/10/06 03:36:01;;;;;;;5.30;4.80;;;13.80;99.90;;;;;;5114019;28;20442;-56
2022/10/06 03:38:31;;;;;;;4.43;3.67;;;13.70;99.90;;;;;;5113187;28;20453;-57
2022/10/06 03:41:07;;;;;;;4.30;3.90;;;13.70;99.90;;;;;;5114596;28;20474;-57
2022/10/06 03:43:35;;;;;;;5.67;4.70;;;13.70;99.90;;;;;;5114727;28;20441;-57
2022/10/06 03:46:03;;;;;;;7.93;4.50;;;13.80;99.90;;;;;;5112463;28;20503;-56
2022/10/06 03:48:33;;;;;;;4.00;3.23;;;13.80;99.90;;;;;;5114087;28;20450;-56
2022/10/06 03:51:02;;;;;;;4.70;3.80;;;13.80;99.90;;;;;;5114221;28;20479;-57
2022/10/06 03:53:29;;;;;;;5.43;3.43;;;13.90;99.90;;;;;;5112443;28;20482;-57
2022/10/06 03:56:01;;;;;;;6.90;3.90;;;13.90;99.90;;;;;;5114066;28;20917;-57
2022/10/06 03:58:30;;;;;;;7.50;4.90;;;13.90;99.90;;;;;;5114352;28;20795;-57
2022/10/06 04:01:01;;;;;;;4.53;4.13;;;13.90;99.90;;;;;;5112242;28;20451;-56
2022/10/06 04:03:29;;;;;;;4.97;4.30;;;13.90;99.90;;;;;;5114446;28;20462;-57
2022/10/06 04:05:57;;;;;;;5.83;3.70;;;13.80;99.90;;;;;;5114612;28;20445;-57
2022/10/06 04:08:24;;;;;;;3.97;3.60;;;13.90;99.90;;;;;;5112272;28;20435;-56
2022/10/06 04:10:52;;;;;;;4.90;4.00;;;13.90;99.90;;;;;;5113946;28;20479;-57
2022/10/06 04:13:20;;;;;;;5.67;4.80;;;13.90;99.90;;;;;;5114383;28;20477;-57
2022/10/06 04:15:48;;;;;;;4.03;3.60;;;13.90;99.90;;;;;;5111505;28;20908;-57
2022/10/06 04:18:16;;;;;;;5.23;4.17;;;13.90;99.90;;;;;;5114066;28;20427;-57
2022/10/06 04:20:43;;;;;;;6.13;4.10;;;14.00;99.90;;;;;;5114016;28;20495;-57
2022/10/06 04:23:11;;;;;;;5.30;4.30;;;14.00;99.90;;;;;;5111794;28;20462;-56
2022/10/06 04:25:38;;;;;;;3.77;3.47;;;14.00;99.90;;;;;;5114134;28;20482;-56
2022/10/06 04:28:05;;;;;;;5.37;4.40;;;14.00;99.90;;;;;;5113800;28;20450;-56
2022/10/06 04:30:32;;;;;;;4.80;3.90;;;14.00;99.90;;;;;;5111741;27;20538;-57
2022/10/06 04:33:01;;;;;;;8.63;4.03;;;14.00;99.90;;;;;;5113817;28;20466;-57
2022/10/06 04:35:28;;;;;;;4.33;3.60;;;13.90;99.90;;;;;;5113955;28;20469;-57
2022/10/06 04:37:57;;;;;;;7.07;4.60;;;13.90;99.90;;;;;;5111530;28;20499;-57
2022/10/06 04:40:24;;;;;;;3.70;3.40;;;13.90;99.90;;;;;;5113688;28;20458;-57
2022/10/06 04:42:51;;;;;;;5.63;4.87;;;13.90;99.90;;;;;;5113599;28;20830;-57
2022/10/06 04:45:18;;;;;;;9.70;4.67;;;13.90;99.90;;;;;;5111332;28;20470;-57
2022/10/06 04:47:47;;;;;;;6.07;4.57;;;13.90;99.90;;;;;;5113555;28;20487;-57
2022/10/06 04:50:17;;;;;;;6.93;4.63;;;13.90;99.90;;;;;;5113372;28;20982;-57
2022/10/06 04:52:44;;;;;;;5.43;4.87;;;13.80;99.90;;;;;;5110918;28;20486;-56
2022/10/06 04:55:11;;;;;;;6.23;4.30;;;13.80;99.90;;;;;;5113262;28;20508;-57
2022/10/06 04:57:38;;;;;;;12.17;4.70;;;13.90;99.90;;;;;;5113418;28;20841;-57
2022/10/06 05:00:25;;;;;;;5.80;4.30;;;14.00;99.90;;;;;;5110952;28;20562;-57
2022/10/06 05:02:54;;;;;;;10.50;4.10;;;14.00;99.90;;;;;;5113236;28;20459;-57
2022/10/06 05:05:23;;;;;;;6.10;4.90;;;14.00;99.90;;;;;;5113034;28;20434;-57
2022/10/06 05:07:50;;;;;;;6.67;4.20;;;14.10;99.90;;;;;;5111409;28;20450;-57
2022/10/06 05:10:17;;;;;;;5.90;4.60;;;14.10;99.90;;;;;;5113399;28;20449;-57
2022/10/06 05:12:44;;;;;;;6.77;4.20;;;14.20;99.90;;;;;;5112741;28;20505;-57
2022/10/06 05:15:12;;;;;;;5.47;4.50;;;14.20;99.90;;;;;;5110937;28;21016;-57
2022/10/06 05:17:39;;;;;;;8.00;4.10;;;14.30;99.90;;;;;;5113085;28;20512;-56
2022/10/06 05:20:07;;;;;;;6.10;4.27;;;14.20;99.90;;;;;;5112972;28;20454;-57
2022/10/06 05:22:35;;;;;;;9.33;5.87;;;14.30;99.90;;;;;;5111035;28;20555;-56
2022/10/06 05:25:03;;;;;;;5.23;4.60;;;14.30;99.90;;;;;;5113099;28;20446;-57
2022/10/06 05:27:30;;;;;;;4.60;4.20;;;14.40;99.90;;;;;;5112975;28;20514;-57
2022/10/06 05:29:57;;;;;;;7.13;4.77;;;14.40;99.90;;;;;;5111128;28;20465;-57
2022/10/06 05:32:24;;;;;;;7.43;4.27;;;14.40;99.90;;;;;;5112429;28;20520;-57
2022/10/06 05:34:51;;;;;;;4.60;4.20;;;14.40;99.90;;;;;;5112632;28;20541;-57
2022/10/06 05:37:19;;;;;;;9.63;4.90;;;14.50;99.90;;;;;;5110556;28;20455;-57
2022/10/06 05:39:47;;;;;;;4.60;4.10;;;14.50;99.90;;;;;;5112626;28;20446;-57
2022/10/06 05:42:15;;;;;;;5.43;4.93;;;14.50;99.90;;;;;;5112439;28;20562;-57
2022/10/06 05:44:42;;;;;;;4.87;4.37;;;14.50;99.90;;;;;;5110647;28;20545;-56
2022/10/06 05:47:09;;;;;;;6.10;4.23;;;14.50;99.90;;;;;;5111568;28;20450;-57
2022/10/06 05:49:36;;;;;;;5.57;4.67;;;14.50;99.90;;;;;;5112451;28;20478;-57
2022/10/06 05:52:03;;;;;;;5.00;4.50;;;14.50;99.90;;;;;;5110518;28;20492;-57
2022/10/06 05:54:31;;;;;;;5.00;4.47;;;14.60;99.90;;;;;;5112173;28;20557;-57
2022/10/06 05:56:59;;;;;;;7.87;5.00;;;14.60;99.90;;;;;;5112507;28;20450;-57
2022/10/06 05:59:27;;;;;;;8.03;5.03;;;14.70;99.90;;;;;;5111554;28;20511;-57
2022/10/06 06:01:54;;;;;;;5.43;4.83;;;14.70;99.90;;;;;;5115510;28;20473;-57
2022/10/06 06:04:21;;;;;;;4.43;3.93;;;14.70;99.90;;;;;;5115537;28;20529;-57
2022/10/06 06:06:48;;;;;;;6.50;4.93;;;14.80;99.90;;;;;;5113918;28;20451;-57
2022/10/06 06:09:17;;;;;;;5.70;4.60;;;14.80;99.90;;;;;;5115471;28;20442;-57
2022/10/06 06:11:46;;;;;;;5.93;5.27;;;14.80;99.90;;;;;;5115183;28;20486;-56
2022/10/06 06:14:16;;;;;;;5.10;4.13;;;14.80;99.90;;;;;;5113371;28;20472;-56
2022/10/06 06:16:43;;;;;;;7.33;4.87;;;14.80;99.90;;;;;;5114887;28;20529;-57
2022/10/06 06:19:12;;;;;;;5.67;4.30;;;14.80;99.90;;;;;;5115343;28;20445;-56
2022/10/06 06:21:40;;;;;;;5.87;5.27;;;14.90;99.90;;;;;;5113289;28;20462;-56
2022/10/06 06:24:07;;;;;;;11.33;5.03;;;14.90;99.90;;;;;;5115933;28;20442;-56
2022/10/06 06:26:36;;;;;;;9.60;5.97;;;14.90;99.90;;;;;;5115779;28;20890;-57
2022/10/06 06:29:05;;;;;;;7.90;5.73;;;14.90;99.90;;;;;;5113555;28;20927;-56
2022/10/06 06:31:35;;;;;;;7.97;5.80;;;15.00;99.90;;;;;;5116199;28;20524;-57
2022/10/06 06:34:03;;;;;;;6.30;5.73;;;15.10;99.90;;;;;;5115661;28;20485;-56
2022/10/06 06:36:34;;;;;;;6.90;5.10;;;15.10;99.90;;;;;;5113320;28;20461;-56
2022/10/06 06:39:03;;;;;;;6.10;5.50;;;15.20;99.90;;;;;;5115458;28;20437;-56
2022/10/06 06:41:32;;;;;;;6.07;5.47;;;15.30;99.90;;;;;;5114764;28;20472;-57
2022/10/06 06:44:00;;;;;;;7.30;5.50;;;15.30;99.90;;;;;;5112954;28;20473;-57
2022/10/06 06:46:30;;;;;;;10.20;6.43;;;15.30;99.90;;;;;;5114528;28;20447;-56
2022/10/06 06:49:03;;;;;;;7.10;5.80;;;15.30;99.90;;;;;;5114331;28;20430;-56
2022/10/06 06:51:32;;;;;;;7.27;5.37;;;15.40;99.90;;;;;;5112833;28;20497;-56
2022/10/06 06:54:01;;;;;;;11.13;5.90;;;15.50;99.90;;;;;;5114499;28;21011;-56
2022/10/06 06:56:28;;;;;;;14.70;6.00;;;15.50;99.90;;;;;;5113775;28;20457;-56
2022/10/06 06:58:56;;;;;;;6.90;5.30;;;15.50;99.90;;;;;;5112159;28;20465;-57
2022/10/06 07:01:23;;;;;;;5.73;5.10;;;15.60;99.90;;;;;;5114810;28;20490;-57
2022/10/06 07:03:53;;;;;;;6.03;5.43;;;15.70;99.90;;;;;;5113781;28;20597;-59
2022/10/06 07:06:25;;;;;;;6.43;5.10;;;15.70;99.90;;;;;;5112451;28;20473;-56
2022/10/06 07:08:57;;;;;;;8.87;5.90;;;15.80;99.90;;;;;;5114145;28;20427;-57
2022/10/06 07:11:30;;;;;;;5.93;4.63;;;15.80;99.90;;;;;;5113806;28;20537;-56
2022/10/06 07:14:00;;;;;;;10.00;5.40;;;15.90;99.90;;;;;;5113682;28;20901;-57
2022/10/06 07:27:34;;;;;;;8.70;3.50;;;16.30;99.90;;;;;;5113031;28;20406;-56
2022/10/06 07:30:02;;;;;;;6.07;3.77;;;16.50;99.90;;;;;;5114577;28;20439;-56
2022/10/06 07:32:30;;;;;;;3.10;2.83;;;16.50;99.90;;;;;;5114726;28;20818;-56
2022/10/06 07:34:57;;;;;;;3.90;3.17;;;16.70;99.90;;;;;;5112784;28;20450;-57
2022/10/06 07:37:27;;;;;;;5.90;3.47;;;16.60;99.90;;;;;;5114336;28;20789;-57
2022/10/06 07:39:55;;;;;;;3.43;3.00;;;16.60;99.90;;;;;;5115073;28;20464;-57
2022/10/06 07:42:22;;;;;;;6.43;3.10;;;16.60;99.90;;;;;;5112225;28;20480;-56
2022/10/06 07:47:30;;;;;;;6.63;3.50;;;16.80;99.90;;;;;;5114062;28;20517;-56
2022/10/06 07:49:58;;;;;;;4.23;2.80;;;16.70;99.90;;;;;;5112515;28;20952;-56
2022/10/06 07:52:27;;;;;;;5.50;3.40;;;16.70;99.90;;;;;;5113678;28;20536;-57
2022/10/06 07:54:55;;;;;;;6.60;3.67;;;16.80;99.90;;;;;;5113900;28;20474;-56
2022/10/06 07:57:22;;;;;;;5.53;3.07;;;16.80;99.90;;;;;;5112500;28;20454;-57
2022/10/06 07:59:49;;;;;;;3.83;3.00;;;16.90;99.90;;;;;;5113344;28;20462;-56
2022/10/06 08:02:18;;;;;;;3.80;3.40;;;17.00;99.90;;;;;;5114184;28;20457;-56
2022/10/06 08:04:45;;;;;;;5.47;3.67;;;17.00;99.90;;;;;;5112509;28;20451;-57
2022/10/06 08:07:12;;;;;;;4.73;2.40;;;17.20;99.90;;;;;;5113469;28;20447;-57
2022/10/06 08:09:41;;;;;;;3.73;2.80;;;17.30;99.90;;;;;;5113957;28;20534;-56
2022/10/06 08:14:49;;;;;;;8.67;3.90;;;17.40;99.90;;;;;;5113641;28;20809;-56
2022/10/06 08:17:16;;;;;;;3.70;2.70;;;17.30;99.90;;;;;;5113739;28;20438;-56
2022/10/06 08:19:43;;;;;;;6.20;3.33;;;17.30;99.90;;;;;;5111799;28;20439;-57
2022/10/06 08:22:11;;;;;;;7.77;3.23;;;17.30;99.90;;;;;;5113175;28;20862;-56
2022/10/06 08:24:38;;;;;;;4.23;2.60;;;17.10;99.90;;;;;;5113688;28;20948;-56
2022/10/06 08:27:08;;;;;;;3.07;2.43;;;17.10;99.90;;;;;;5111294;28;20447;-56
2022/10/06 08:29:35;;;;;;;2.60;2.37;;;17.10;99.90;;;;;;5113624;28;20439;-57
2022/10/06 08:32:03;;;;;;;2.90;2.33;;;17.00;99.90;;;;;;5113508;28;20551;-56
2022/10/06 08:34:30;;;;;;;5.23;2.97;;;17.00;99.90;;;;;;5110899;28;20451;-57
2022/10/06 08:36:57;;;;;;;10.13;3.80;;;17.10;99.90;;;;;;5113571;28;20455;-57
2022/10/06 08:39:24;;;;;;;2.77;2.20;;;17.00;99.90;;;;;;5113334;28;20537;-56
2022/10/06 08:41:53;;;;;;;9.40;3.60;;;17.00;99.90;;;;;;5111325;28;20473;-56
2022/10/06 08:44:30;;;;;;;5.83;2.70;;;17.10;99.90;;;;;;5112918;28;20447;-56
2022/10/06 08:47:00;;;;;;;6.00;2.60;;;17.10;99.90;;;;;;5113423;28;20779;-56
2022/10/06 08:49:34;;;;;;;7.03;2.50;;;17.20;99.90;;;;;;5111124;28;20929;-55
2022/10/06 08:52:16;;;;;;;6.20;2.60;;;17.10;99.90;;;;;;5113246;28;20474;-56
2022/10/06 08:54:51;;;;;;;9.03;2.30;;;17.20;99.90;;;;;;5112058;28;21048;-56
2022/10/06 08:57:24;;;;;;;4.07;2.93;;;17.20;99.90;;;;;;5110855;28;20434;-56
2022/10/06 08:59:53;;;;;;;10.43;2.60;;;17.30;99.90;;;;;;5112373;28;20980;-57
2022/10/06 09:02:28;;;;;;;11.77;2.97;;;17.40;99.90;;;;;;5112115;28;21028;-57
2022/10/06 09:04:57;;;;;;;9.40;3.80;;;17.30;99.90;;;;;;5110774;28;20434;-57
2022/10/06 09:07:32;;;;;;;7.00;2.20;;;17.40;99.90;;;;;;5112439;28;20474;-57
2022/10/06 09:10:17;;;;;;;5.40;2.43;;;17.50;99.90;;;;;;5111308;28;20520;-57
2022/10/06 09:12:50;;;;;;;5.80;1.90;;;17.40;99.90;;;;;;5112360;28;20486;-57
2022/10/06 09:15:29;;;;;;;6.43;2.40;;;17.50;99.90;;;;;;5111884;28;20430;-57
2022/10/06 09:18:02;;;;;;;4.30;2.30;;;17.50;99.90;;;;;;5110117;28;20426;-58
2022/10/06 09:20:34;;;;;;;3.00;1.90;;;17.50;99.90;;;;;;5112217;28;20435;-58
2022/10/06 09:23:03;;;;;;;3.23;1.93;;;17.60;99.90;;;;;;5111459;28;20498;-57
2022/10/06 09:25:31;;;;;;;3.63;2.03;;;17.60;99.90;;;;;;5109651;28;20921;-57
2022/10/06 09:28:02;;;;;;;4.63;2.50;;;17.70;99.90;;;;;;5112164;28;20495;-57
2022/10/06 09:30:30;;;;;;;8.07;2.13;;;17.70;99.90;;;;;;5111693;28;20928;-57
2022/10/06 09:33:00;;;;;;;4.57;2.40;;;17.90;99.90;;;;;;5109016;28;20493;-57
2022/10/06 09:35:29;;;;;;;3.40;2.17;;;18.00;99.90;;;;;;5111144;28;20443;-56
2022/10/06 09:38:02;;;;;;;6.70;2.60;;;18.00;99.90;;;;;;5111778;28;20481;-57
2022/10/06 09:40:37;;;;;;;5.83;2.57;;;18.20;99.90;;;;;;5109717;28;20843;-57
2022/10/06 09:43:15;;;;;;;4.20;2.50;;;18.10;99.90;;;;;;5111765;28;20520;-57
2022/10/06 09:45:44;;;;;;;4.93;2.20;;;18.20;99.90;;;;;;5111527;28;20422;-58
2022/10/06 09:48:13;;;;;;;7.27;2.80;;;18.20;99.90;;;;;;5109792;28;20454;-58
2022/10/06 09:50:41;;;;;;;4.70;2.17;;;18.30;99.90;;;;;;5111604;28;20960;-58
2022/10/06 09:53:17;;;;;;;3.87;2.17;;;18.30;99.90;;;;;;4992803;28;3347793;-59
2022/10/06 09:55:53;;;;;;;3.00;1.83;;;18.10;99.90;;;;;;5110762;28;20430;-58
2022/10/06 09:58:32;;;;;;;7.57;2.10;;;18.10;99.90;;;;;;5112709;28;20522;-58
2022/10/06 10:01:03;;;;;;;3.50;2.00;;;18.20;99.90;;;;;;5112586;28;20450;-58
2022/10/06 10:03:50;;;;;;;6.07;2.37;;;18.50;99.90;;;;;;5110255;28;20473;-57
2022/10/06 10:06:26;;;;;;;5.03;2.30;;;18.60;99.90;;;;;;5111535;28;20430;-57
2022/10/06 10:09:15;;;;;;;2.87;1.70;;;18.50;99.90;;;;;;5110895;28;20428;-56
2022/10/06 10:14:26;;;;;;;3.10;2.17;;;18.20;99.90;;;;;;5111081;28;20982;-57
2022/10/06 10:16:55;;;;;;;4.33;2.13;;;18.40;99.90;;;;;;5109279;28;20526;-56
2022/10/06 10:19:26;;;;;;;6.00;2.20;;;18.40;99.90;;;;;;5111685;28;20445;-56
2022/10/06 10:21:56;;;;;;;5.53;2.57;;;18.40;99.90;;;;;;5111308;28;20463;-57
2022/10/06 10:24:41;;;;;;;6.83;2.10;;;18.20;99.90;;;;;;5109761;28;20888;-56
2022/10/06 10:27:16;;;;;;;4.70;2.90;;;18.50;99.90;;;;;;5111365;28;20435;-57
2022/10/06 10:30:00;;;;;;;3.40;2.00;;;18.40;99.90;;;;;;5111739;28;20430;-57
2022/10/06 10:32:43;;;;;;;4.50;2.13;;;19.80;99.90;;;;;;5110090;28;20492;-58
2022/10/06 10:35:20;;;;;;;2.50;1.90;;;22.20;99.90;;;;;;5111162;28;20625;-58
2022/10/06 10:37:52;;;;;;;7.10;2.30;;;22.60;99.90;;;;;;5111432;28;20431;-59
2022/10/06 10:40:30;;;;;;;4.80;2.20;;;23.00;99.90;;;;;;5109298;28;20462;-58
2022/10/06 10:43:04;;;;;;;5.83;1.77;;;24.10;99.90;;;;;;5110835;28;20944;-58
2022/10/06 10:45:34;;;;;;;4.73;2.23;;;25.00;99.90;;;;;;5112762;28;20426;-58
2022/10/06 10:48:07;;;;;;;4.27;2.23;;;25.60;99.90;;;;;;5113010;28;20446;-57
2022/10/06 10:50:40;;;;;;;6.13;2.20;;;25.50;99.30;;;;;;5114862;28;20423;-58
2022/10/06 10:53:15;;;;;;;4.90;2.10;;;24.60;99.30;;;;;;5114214;28;20853;-58
2022/10/06 10:55:45;;;;;;;3.20;2.00;;;23.20;99.90;;;;;;5113214;28;20433;-58
2022/10/06 10:58:20;;;;;;;3.50;2.20;;;22.10;99.90;;;;;;5114638;27;20499;-58
2022/10/06 11:00:48;;;;;;;4.43;2.27;;;;;;;;;;5115250;28;20461;-59
2022/10/06 11:03:17;;;;;;;3.10;2.07;;;21.10;99.90;;;;;;5113325;28;20470;-58
2022/10/06 11:06:03;;;;;;;4.83;2.33;;;20.80;99.90;;;;;;5114774;28;20447;-57
2022/10/06 11:08:40;;;;;;;3.53;2.00;;;20.70;99.90;;;;;;5113507;28;20431;-58
2022/10/06 11:11:14;;;;;;;6.90;2.47;;;21.10;99.90;;;;;;5114635;28;20453;-57
2022/10/06 11:13:45;;;;;;;3.60;1.80;;;21.20;99.90;;;;;;5114327;28;20851;-58
2022/10/06 11:16:32;;;;;;;8.07;3.20;;;21.40;99.90;;;;;;5112940;28;20867;-57
2022/10/06 11:19:19;;;;;;;3.73;2.47;;;21.80;99.90;;;;;;5114599;28;20430;-57
2022/10/06 11:21:55;;;;;;;4.03;2.30;;;21.30;99.90;;;;;;5114061;28;20462;-57
2022/10/06 11:24:32;;;;;;;5.37;2.40;;;20.70;99.90;;;;;;5111757;28;20429;-57
2022/10/06 11:27:16;;;;;;;4.20;2.20;;;20.90;99.90;;;;;;5114502;28;20759;-57
2022/10/06 11:29:54;;;;;;;3.70;2.10;;;20.90;99.90;;;;;;5114285;28;20426;-57
2022/10/06 11:32:27;;;;;;;2.60;2.07;;;20.70;99.90;;;;;;5112078;28;20808;-57
2022/10/06 11:34:56;;;;;;;5.10;2.10;;;20.40;99.90;;;;;;5114463;28;20459;-57
2022/10/06 11:37:35;;;;;;;4.77;2.20;;;20.10;99.90;;;;;;5114098;28;20875;-57
2022/10/06 11:40:21;;;;;;;9.67;3.80;;;19.90;99.90;;;;;;5112076;28;20454;-57
2022/10/06 11:42:55;;;;;;;5.37;2.83;;;20.00;99.90;;;;;;5114228;28;20917;-57
2022/10/06 11:45:34;;;;;;;8.67;4.37;;;20.00;99.90;;;;;;5114322;28;20438;-57
2022/10/06 11:48:24;;;;;;;6.50;2.00;;;20.00;99.90;;;;;;5114037;28;20477;-57
2022/10/06 11:50:54;;;;;;;4.03;1.90;;;20.20;99.90;;;;;;5114296;28;20463;-56
2022/10/06 11:53:40;;;;;;;4.13;2.40;;;20.10;99.90;;;;;;5111266;28;20486;-57
2022/10/06 11:56:44;;;;;;;7.60;3.40;;;20.80;99.90;;;;;;5113214;28;20462;-57
2022/10/06 11:59:27;;;;;;;3.57;2.10;;;21.00;99.90;;;;;;5113826;28;20874;-57
2022/10/06 12:01:56;;;;;;;3.60;2.30;;;21.10;99.90;;;;;;5111748;28;20479;-56
2022/10/06 12:04:25;;;;;;;8.67;3.30;;;21.80;99.90;;;;;;5113121;28;20446;-57
2022/10/06 12:06:59;;;;;;;3.00;1.73;;;21.80;99.90;;;;;;5113740;28;20466;-57
2022/10/06 12:09:51;;;;;;;7.30;1.70;;;22.70;99.90;;;;;;5111295;28;20445;-57
2022/10/06 12:12:55;;;;;;;5.07;2.80;;;22.10;99.90;;;;;;5112676;28;20466;-56
2022/10/06 12:15:57;;;;;;;5.63;2.47;;;21.60;99.90;;;;;;5110625;28;21170;-56
2022/10/06 12:18:41;;;;;;;2.70;1.90;;;21.20;99.90;;;;;;5106417;28;20450;-56
2022/10/06 12:21:38;;;;;;;3.30;1.57;;;20.90;99.90;;;;;;5112753;28;20430;-56
2022/10/06 12:24:30;;;;;;;5.13;2.83;;;20.70;99.90;;;;;;5110446;28;20453;-56
2022/10/06 12:27:24;;;;;;;4.70;2.17;;;20.50;99.90;;;;;;5111851;28;20446;-56
2022/10/06 12:29:57;;;;;;;4.07;2.23;;;20.30;99.90;;;;;;5103105;28;20496;-56
2022/10/06 12:32:45;;;;;;;3.10;1.80;;;19.90;99.90;;;;;;5113642;28;20455;-56
2022/10/06 12:35:23;;;;;;;3.60;2.10;;;19.70;99.90;;;;;;5112885;28;20487;-56
2022/10/06 12:37:52;;;;;;;5.80;2.53;;;19.50;99.90;;;;;;5111744;28;20499;-56
2022/10/06 12:40:50;;;;;;;3.17;2.00;;;19.50;99.90;;;;;;5113293;28;20470;-56
2022/10/06 12:43:48;;;;;;;6.47;2.30;;;19.40;99.90;;;;;;5112981;28;20458;-56
2022/10/06 12:46:21;;;;;;;3.00;2.40;;;19.50;99.90;;;;;;5110465;28;20553;-56
2022/10/06 12:49:11;;;;;;;6.20;2.47;;;19.50;99.90;;;;;;5112360;28;20507;-56
2022/10/06 12:51:41;;;;;;;5.50;2.30;;;19.30;99.90;;;;;;5112990;28;20458;-56
2022/10/06 12:54:19;;;;;;;5.40;1.90;;;19.30;99.90;;;;;;5110612;28;20573;-57
2022/10/06 12:56:58;;;;;;;5.23;2.00;;;19.40;99.90;;;;;;5112773;28;20431;-57
2022/10/06 12:59:27;;;;;;;3.83;1.70;;;19.50;99.90;;;;;;5112545;28;20426;-56
2022/10/06 13:01:57;;;;;;;8.90;2.37;;;19.80;99.90;;;;;;5111399;28;20478;-56
2022/10/06 13:04:36;;;;;;;5.27;2.40;;;20.00;99.90;;;;;;5112674;28;20442;-56
2022/10/06 13:07:11;;;;;;;5.80;1.90;;;20.50;99.90;;;;;;5109565;28;20920;-56
2022/10/06 13:09:38;;;;;;;6.00;2.00;;;20.50;99.90;;;;;;5112301;28;20955;-56
2022/10/06 13:12:29;;;;;;;3.97;2.07;;;20.20;99.90;;;;;;5112282;28;20442;-56
2022/10/06 13:15:15;;;;;;;4.63;1.90;;;20.20;99.90;;;;;;5109841;28;20462;-56
2022/10/06 13:17:46;;;;;;;2.80;1.90;;;20.30;99.90;;;;;;5112632;28;20469;-56
2022/10/06 13:20:35;;;;;;;4.10;2.40;;;20.40;99.90;;;;;;5112998;28;20443;-56
2022/10/06 13:23:05;;;;;;;9.30;2.60;;;20.10;99.90;;;;;;5110516;28;20987;-56
2022/10/06 13:25:41;;;;;;;7.43;2.13;;;20.10;99.90;;;;;;5111840;28;20426;-56